Time,TemperatureF,DewpointF,PressureIn,WindDirection,WindDirectionDegrees,WindSpeedMPH,WindSpeedGustMPH,Humidity,HourlyPrecipIn,Conditions,Clouds,dailyrainin,SoftwareType,DateUTC
2013-08-17 01:52:00,62.0,61.0,-100.00,SSE,155,5.0,8.0,96,0.00,,,-99.99,,2013-08-17 06:52:00,
2013-08-17 02:52:00,60.0,60.0,-100.00,SE,135,5.0,7.0,97,0.00,,,-99.99,,2013-08-17 07:52:00,
2013-08-17 03:11:00,60.0,60.0,-100.00,SE,135,4.0,6.0,97,0.00,,,-99.99,,2013-08-17 08:11:00,
2013-08-17 03:52:00,60.0,60.0,-100.00,SSE,160,5.0,8.0,98,0.00,,,-99.99,,2013-08-17 08:52:00,
2013-08-17 04:11:00,60.0,59.0,-100.00,SE,125,4.0,9.0,98,0.00,,,-99.99,,2013-08-17 09:11:00,
2013-08-17 04:53:00,59.0,59.0,-100.00,SSE,150,5.0,7.0,98,0.00,,,-99.99,,2013-08-17 09:53:00,
2013-08-17 05:12:00,59.0,59.0,-100.00,SE,135,4.0,6.0,98,0.00,,,-99.99,,2013-08-17 10:12:00,
2013-08-17 05:53:00,58.0,58.0,-100.00,SSE,150,4.0,7.0,98,0.00,,,-99.99,,2013-08-17 10:53:00,
2013-08-17 06:11:00,54.0,54.0,-100.00,SE,135,4.0,7.0,98,0.00,,,-99.99,,2013-08-17 11:11:00,
2013-08-17 06:52:00,55.0,55.0,-100.00,ESE,115,6.0,9.0,99,0.00,,,-99.99,,2013-08-17 11:52:00,
2013-08-17 07:52:00,58.0,58.0,-100.00,SE,135,6.0,9.0,99,0.00,,,-99.99,,2013-08-17 12:52:00,
2013-08-17 08:11:00,58.0,58.0,-100.00,SE,135,5.0,9.0,99,0.00,,,-99.99,,2013-08-17 13:11:00,
2013-08-17 08:52:00,60.0,60.0,-100.00,SE,135,4.0,9.0,99,0.00,,,-99.99,,2013-08-17 13:52:00,
2013-08-17 09:11:00,61.0,60.0,-100.00,SSE,155,6.0,9.0,99,0.00,,,-99.99,,2013-08-17 14:11:00,
2013-08-17 09:52:00,64.0,63.0,-100.00,SSE,155,5.0,9.0,98,0.00,,,-99.99,,2013-08-17 14:52:00,
2013-08-17 10:11:00,65.0,64.0,-100.00,SE,130,6.0,9.0,97,0.00,,,-99.99,,2013-08-17 15:11:00,
2013-08-17 10:53:00,69.0,65.0,-100.00,South,170,4.0,9.0,86,0.00,,,-99.99,,2013-08-17 15:53:00,
2013-08-17 11:12:00,70.0,64.0,-100.00,SSE,155,6.0,9.0,82,0.00,,,-99.99,,2013-08-17 16:12:00,
2013-08-17 11:53:00,74.0,66.0,-100.00,SE,130,4.0,9.0,74,0.00,,,-99.99,,2013-08-17 16:53:00,
2013-08-17 12:12:00,74.0,66.0,-100.00,SE,130,6.0,9.0,74,0.00,,,-99.99,,2013-08-17 17:12:00,
2013-08-17 12:52:00,72.0,61.0,-100.00,SE,140,4.0,9.0,68,0.00,,,-99.99,,2013-08-17 17:52:00,
2013-08-17 13:52:00,77.0,65.0,-100.00,SE,135,6.0,9.0,65,0.00,,,-99.99,,2013-08-17 18:52:00,
2013-08-17 14:11:00,79.0,66.0,-100.00,SE,140,4.0,9.0,64,0.00,,,-99.99,,2013-08-17 19:11:00,
2013-08-17 14:52:00,80.0,65.0,-100.00,SE,135,5.0,9.0,61,0.00,,,-99.99,,2013-08-17 19:52:00,
2013-08-17 15:11:00,79.0,65.0,-100.00,South,175,4.0,9.0,61,0.00,,,-99.99,,2013-08-17 20:11:00,
2013-08-17 15:52:00,82.0,66.0,-100.00,SSE,150,4.0,9.0,59,0.00,,,-99.99,,2013-08-17 20:52:00,
2013-08-17 16:11:00,82.0,67.0,-100.00,SE,145,6.0,9.0,59,0.00,,,-99.99,,2013-08-17 21:11:00,
2013-08-17 16:54:00,83.0,67.0,-100.00,SE,140,5.0,9.0,58,0.00,,,-99.99,,2013-08-17 21:54:00,
2013-08-17 17:13:00,77.0,62.0,-100.00,South,180,4.0,9.0,58,0.00,,,-99.99,,2013-08-17 22:13:00,
2013-08-17 17:52:00,79.0,63.0,-100.00,SE,135,4.0,9.0,58,0.00,,,-99.99,,2013-08-17 22:52:00,
2013-08-17 18:11:00,79.0,63.0,-100.00,SSE,160,5.0,9.0,58,0.00,,,-99.99,,2013-08-17 23:11:00,
2013-08-17 18:52:00,78.0,62.0,-100.00,SE,125,4.0,9.0,58,0.00,,,-99.99,,2013-08-17 23:52:00,
2013-08-17 19:12:00,77.0,62.0,-100.00,SSE,150,5.0,9.0,59,0.00,,,-99.99,,2013-08-18 00:12:00,
2013-08-17 19:52:00,80.0,66.0,-100.00,SE,125,6.0,9.0,63,0.00,,,-99.99,,2013-08-18 00:52:00,
2013-08-17 20:11:00,79.0,66.0,-100.00,SE,135,6.0,9.0,63,0.00,,,-99.99,,2013-08-18 01:11:00,
2013-08-17 20:52:00,77.0,65.0,-100.00,SE,145,5.0,9.0,67,0.00,,,-99.99,,2013-08-18 01:52:00,
2013-08-17 21:11:00,76.0,66.0,-100.00,ESE,120,5.0,9.0,69,0.00,,,-99.99,,2013-08-18 02:11:00,
2013-08-17 21:52:00,74.0,66.0,-100.00,SE,140,6.0,9.0,75,0.00,,,-99.99,,2013-08-18 02:52:00,
2013-08-17 22:11:00,74.0,66.0,-100.00,SE,125,6.0,9.0,76,0.00,,,-99.99,,2013-08-18 03:11:00,
2013-08-17 22:53:00,72.0,67.0,-100.00,SE,135,5.0,9.0,81,0.00,,,-99.99,,2013-08-18 03:53:00,
2013-08-17 23:02:00,-999.0,-99.9,-100.00,SE,140,7.0,9.0,-999,0.00,,,-99.99,,2013-08-18 04:02:00,
2013-08-17 23:12:00,72.0,67.0,-100.00,SE,140,7.0,9.0,82,0.00,,,-99.99,,2013-08-18 04:12:00,
2013-08-17 23:53:00,70.0,67.0,-100.00,ESE,120,6.0,9.0,87,0.00,,,-99.99,,2013-08-18 04:53:00,